Sargent, NE

8:37 PM CDT on July 30, 2014 (GMT -0500)
Kelly (KLXN) Elev 2411 ft | 40.79 °N, 99.78 °W | Change Station

Current weather conditions updated 22 minutes ago

Clear
Clear
75 °F
Feels Like 75 °F
N
0
Wind Variable Wind from North

Tomorrow is forecast to be Warmer than today.

Today
High -- | Low -- °F
--% Chance of Precip.
Yesterday
High -- | Low -- °F
Precip. -- in
6:29 AM 8:57 PM
Waxing Crescent, 15% visible
Pressure 30.16 in
Visibility 10.0 miles
Clouds Clear
Dew Point 60 °F
Humidity 60%
Rainfall 0.00 in
Snow Depth Not available.
UV 0 out of 12
Pollen 6.70 out of 12
Air Quality Not available.
Flu Activity Not available.
METAR KLXN 310115Z AUTO 00000KT 10SM CLR 24/16 A3016 RMK AO2 T02400158

More Conditions Fewer Conditions

Pressure 30.16 in
Visibility 10.0 miles
Clouds Clear
Dew Point 60 °F
Humidity 60%
Rainfall 0.00 in
Snow Depth Not available.
UV 0 out of 12
Pollen 6.70 out of 12
Air Quality Not available.
Flu Activity Not available.
METAR KLXN 310115Z AUTO 00000KT 10SM CLR 24/16 A3016 RMK AO2 T02400158

More Conditions Fewer Conditions

10-Day Weather Forecast

Almanac

Astronomy

Jul. 30, 2014 Rise Set
Actual Time 6:29 AM CDT 8:57 PM CDT
Civil Twilight 5:58 AM CDT 9:28 PM CDT
Nautical Twilight 5:19 AM CDT 10:07 PM CDT
Astronomical Twilight 4:35 AM CDT 10:51 PM CDT
Moon 10:06 AM CDT (7/30) 10:36 PM CDT (7/30)
Length of Visible Light 15h 30m
Length of Day
14h 27m
Tomorrow will be 2m 3s shorter.
Waxing Crescent, 15% of the Moon is Illuminated
Today
Waxing Crescent
Aug 3
First Quarter
Aug 10
Full
Aug 17
Last Quarter
Aug 25
New

Today's Extremes

State Highs State Lows

Community

WunderPhotos

Upload Photos

1,739,264 photos uploaded!

Nearby

Snow Depth

Station Depth Elevation
No new snow has been reported.

Earthquake Activity

City Distance Mag. Time & Date
No recent earthquake activity has been reported nearby.
Minimum magnitude displayed is 2.5.

Coastal Water Temperatures

Place Temperature
No Stations Reporting

Nearby Weather Stations

Station Location Temp. Heat Index Dew Point Humidity Wind Precip. Elev Updated Type
Sargent, Sargent, NE 78.1 °F 79 °F 59 °F 52% NNE  at  0.0 mph 0.00 in / hr 2314 ft 8:24 PM CDT Normal
South of Town, Broken Bow, NE 72.7 °F 77 °F 55 °F 54% East  at  0.0 mph 0.00 in / hr 2523 ft 8:36 PM CDT Normal
Ansley, NE 75.3 °F 77 °F 61 °F 61% South  at  0.0 mph 0.00 in / hr 2320 ft 8:29 PM CDT Normal

Show More Stations Show Fewer Stations